Aérodrome :
LOGIN :

S'inscrire | Disclaimer

   EN    FR    IT 

 










Légende :    VFR   VFR Marginal   IFR   IFR Intensif   IFR Très Intensif
Visi : 
Plafond : 
>= 8 km
>= 3000ft
5 à 8 km
1000 à 3000 ft
1500m à 5 km
500 à 1000 ft
800 à 1500m
200 à 500 ft
< 800m
< 200 ft
Symboles :   Orages  Brouillard  Fortes neiges  Fortes précipitations  Vent > 20 kt
SIGMETs :   Divers  Orages  Givrage  Turbulence  Onde Orograph.  Cendres Volcan.






- Altitude de l'aérodrome : 22 ft
- Code IATA : FSS


EGQK - RAF Kinloss

DERNIER METAR :
  • 261650Z 24012KT 9999 FEW016 SCT032 03/M02 Q0996 BLU

METARs EXPIRÉS :
  • 261550Z 27017KT 9999 FEW033 SCT060 04/M01 Q0996 BLU
  • 261523Z 26014KT 9999 FEW022 SCT032 04/M02 Q0996 BLU
  • 261450Z 25013KT 9999 VCSH FEW025 FEW030CB SCT035 05/M00 Q0996 BLU

TAF TAF EGQK
Valide du 26 à 18h jusqu'au 27 à 12h UTC


261644Z 2618/2712 25010KT 9999 FEW018
PROB30
TEMPO 2618/2710 SCT018
BECMG 2710/2712 26015G25KT
PROB30
TEMPO 2710/2712 4000 SHRASN SCT015CB



MET'MAP, la Météo Aéronautique d'un coup d'oeil ! - Copyright ORBIFLY Décembre 2007 - Disclaimer

ORBIFLY MET'MAP TEAM :

Programmation & Développement : Alexandra Zaïnal
Sur une idée originale de : Baudouin d'Aumeries
Assistance à la programmation : Marc-Olivier Méhu
Soutien technique & logistique : Manuel Goepfert

Contact : metmap@orbifly.com




SOURCES & CREDITS :

   NOAA